Quick Links (Output Below):   Max & Min Temps   /   Climate Reports   /   Zone Forecasts
River Forecasts   /   Forestry Forecasts   /   Aviation Forecasts   /   Radars   /   Features

Terminal Aerodrome Forecast (Pine Bluff)

Pick a Site:
Arkadelphia | El Dorado | Fayetteville | Fort Smith | Harrison | Highfill | Hot Springs | Jonesboro
Little Rock | Monticello | Mountain Home | Pine Bluff | Texarkana
 Forecast 

KPBF 222332Z 2300/2324 20004KT P6SM SKC
     FM231700 25007KT P6SM FEW050=


 Latest METARs (Observations) 
How to Decode METARs
23Z KPBF 222253Z AUTO 21006KT 10SM CLR 33/23 A2999 RMK AO2 SLP154
         T03280233
         
22Z KPBF 222153Z AUTO 24007KT 10SM FEW042 33/23 A3000 RMK AO2 SLP155
         T03330233
         
21Z KPBF 222053Z AUTO 22009KT 10SM CLR 34/23 A3001 RMK AO2 SLP160
         T03390233 58017
         
20Z KPBF 221953Z AUTO 23009KT 10SM CLR 33/23 A3003 RMK AO2 SLP166
         T03330228
         
19Z KPBF 221853Z AUTO 23006KT 10SM CLR 33/23 A3005 RMK AO2 SLP173
         T03280228
         
18Z KPBF 221753Z AUTO 21008KT 10SM CLR 32/22 A3006 RMK AO2 SLP178
         T03220222 10322 20228 58007
         
17Z KPBF 221653Z AUTO 25008KT 10SM CLR 32/22 A3008 RMK AO2 SLP183
         T03170217
         
16Z KPBF 221553Z AUTO 26008KT 10SM CLR 31/22 A3009 RMK AO2 SLP186
         T03060222
         
15Z KPBF 221453Z AUTO 24006KT 10SM CLR 29/23 A3008 RMK AO2 SLP184
         T02890228 50003
         
14Z KPBF 221353Z AUTO 24007KT 10SM CLR 26/23 A3009 RMK AO2 SLP186
         T02610228
         
***** Today's Observations (Above) *****


Back to Main Page
http://www.srh.noaa.gov/lzk/qfcst.php

USA.gov is the U.S. government's official web portal to all federal, state and local government web resources and services.